Carmichael, CA

11:32 AM PDT on August 27, 2016 (GMT -0700)
| | Change Station

Elev -9999 ft 0.00 °N, 0.00 °E | Updated

Clear
Clear
84 °F
Feels Like 84 °F
N
7
Wind Variable Wind from SW
Gusts mph

Today
High -- | Low -- °F
--% Chance of Precip.
Yesterday
High -- | Low -- °F
Precip. -- in
Pressure 29.98 in
Visibility 8.0 miles
Clouds Clear
Dew Point 50 °F
Humidity 31%
Rainfall --
Snow Depth Not available.
6:30 AM 7:42 PM
Waning Crescent, 22% visible
METAR KMCC 271815Z AUTO 20007KT 8SM CLR 22/12 A2998 RMK AO2
Pressure 29.98 in
Visibility 8.0 miles
Clouds Clear
Dew Point 50 °F
Humidity 31%
Rainfall --
Snow Depth Not available.
6:30 AM 7:42 PM
Waning Crescent, 22% visible
METAR KMCC 271815Z AUTO 20007KT 8SM CLR 22/12 A2998 RMK AO2

10-Day Weather Forecast

Almanac

Astronomy

Aug. 27, 2016 Rise Set
Actual Time
Civil Twilight
Nautical Twilight
Astronomical Twilight
Moon
Length of Visible Light
Length of Day
Tomorrow will be .
, % of the Moon is Illuminated

Today's Extremes

State Highs State Lows

Community

WunderPhotos

Upload Photos

1,935,396 photos uploaded!

WunderBlog® & News

Nearby

Air Quality

  Air Quality AQ Index Pollutant
Not available.

Snow Depth

Station Depth Elevation

Earthquake Activity

City Distance Mag. Time & Date
Minimum magnitude displayed is 2.5.

Coastal Water Temperatures

Place Temperature

Stations

Nearby Weather Stations

Station Location Temp. Windchill Dew Point Humidity Wind Precip. Elev Updated Type
                   

Watches & Warnings

There are currently no watches in effect.